Time;durP1;ratioP1;P1;durP2;ratioP2;P2;SDS_P1;SDS_P2;PMS_P1;PMS_P2;Temp;Humidity;BMP_temperature;BMP_pressure;BME280_temperature;BME280_humidity;BME280_pressure;Samples;Min_cycle;Max_cycle;Signal;HPM_P1;HPM_P2
2022/11/11 00:00:58;;;;;;;11.93;8.97;;;;;8.70;100381.00;;;;16534271;28;20231;-50
2022/11/11 00:09:21;;;;;;;9.73;8.50;;;;;8.60;100376.00;;;;16521386;28;20227;-48
2022/11/11 00:26:22;;;;;;;14.17;10.37;;;;;8.40;100378.00;;;;16517742;28;20255;-48
2022/11/11 00:35:51;;;;;;;12.93;9.87;;;;;8.50;100386.00;;;;16526383;28;20582;-49
2022/11/11 00:43:26;;;;;;;12.30;10.00;;;;;8.90;100389.00;;;;16512840;28;20617;-49
2022/11/11 00:51:47;;;;;;;12.30;10.10;;;;;9.00;100391.00;;;;16512100;28;20610;-49
2022/11/11 01:00:10;;;;;;;14.53;9.87;;;;;8.20;100408.00;;;;16510706;28;20325;-49
2022/11/11 01:08:31;;;;;;;11.20;10.07;;;;;8.40;100419.00;;;;16519585;28;20194;-50
2022/11/11 01:16:54;;;;;;;11.10;9.93;;;;;8.20;100410.00;;;;16516971;28;20633;-49
2022/11/11 01:25:15;;;;;;;15.63;12.90;;;;;8.70;100404.00;;;;16515184;28;20221;-49
2022/11/11 01:33:38;;;;;;;13.67;12.37;;;;;8.90;100405.00;;;;16526847;28;20302;-50
2022/11/11 01:41:59;;;;;;;20.90;14.87;;;;;9.10;100402.00;;;;16522480;28;20719;-50
2022/11/11 01:50:21;;;;;;;29.77;19.90;;;;;8.10;100414.00;;;;16516240;28;20231;-49
2022/11/11 01:58:42;;;;;;;13.33;11.93;;;;;8.80;100403.00;;;;16532524;28;20231;-49
2022/11/11 02:07:08;;;;;;;11.43;10.33;;;;;8.20;100394.00;;;;16542047;28;20645;-49
2022/11/11 02:15:29;;;;;;;12.20;10.63;;;;;8.70;100400.00;;;;16524830;28;20746;-50
2022/11/11 02:23:59;;;;;;;13.43;10.43;;;;;8.60;100418.00;;;;16525270;28;20715;-48
2022/11/11 02:32:20;;;;;;;19.93;17.80;;;;;8.60;100407.00;;;;16527953;28;20236;-49
2022/11/11 02:49:19;;;;;;;17.30;15.53;;;;;9.10;100403.00;;;;16524655;28;20699;-49
2022/11/11 02:57:42;;;;;;;21.37;15.57;;;;;8.70;100406.00;;;;16545274;28;20254;-48
2022/11/11 03:06:03;;;;;;;19.80;16.13;;;;;8.40;100400.00;;;;16540845;28;20215;-50
2022/11/11 03:14:26;;;;;;;21.37;14.90;;;;;8.20;100405.00;;;;16524090;28;20223;-49
2022/11/11 03:23:00;;;;;;;17.57;12.80;;;;;8.20;100395.00;;;;16526870;28;20729;-49
2022/11/11 03:31:23;;;;;;;16.90;11.87;;;;;8.30;100401.00;;;;16524152;28;20254;-49
2022/11/11 03:39:44;;;;;;;20.90;15.23;;;;;8.40;100412.00;;;;16528554;28;20231;-49
2022/11/11 03:48:07;;;;;;;18.13;14.00;;;;;8.20;100402.00;;;;16521220;28;20574;-50
2022/11/11 03:56:27;;;;;;;16.10;11.27;;;;;7.90;100407.00;;;;16520147;28;20222;-49
2022/11/11 04:22:09;;;;;;;10.10;9.20;;;;;7.70;100437.00;;;;16482426;28;20232;-49
2022/11/11 04:30:30;;;;;;;9.97;8.97;;;;;7.50;100422.00;;;;16474764;28;20321;-49
2022/11/11 04:47:31;;;;;;;14.47;10.23;;;;;7.40;100432.00;;;;16476381;28;20210;-49
2022/11/11 05:04:32;;;;;;;8.80;7.93;;;;;7.30;100472.00;;;;16469807;28;20233;-49
2022/11/11 05:21:19;;;;;;;7.67;6.87;;;;;7.40;100492.00;;;;16464152;28;20216;-49
2022/11/11 05:21:37;;;;;;;8.93;8.03;;;;;7.60;100506.00;;;;16493813;28;20730;-49
2022/11/11 05:29:59;;;;;;;13.60;9.87;;;;;7.20;100508.00;;;;16472958;28;20226;-49
2022/11/11 05:38:20;;;;;;;12.10;10.20;;;;;7.30;100512.00;;;;16480732;28;20228;-49
2022/11/11 05:46:43;;;;;;;9.90;8.90;;;;;7.60;100527.00;;;;16474561;28;20303;-49
2022/11/11 05:55:04;;;;;;;9.67;8.40;;;;;7.50;100528.00;;;;16518307;28;20223;-49
2022/11/11 06:03:26;;;;;;;10.13;9.07;;;;;7.30;100553.00;;;;16518797;28;20229;-49
2022/11/11 06:11:47;;;;;;;9.53;8.50;;;;;7.30;100552.00;;;;16528559;28;20223;-48
2022/11/11 06:20:10;;;;;;;8.20;7.50;;;;;7.20;100560.00;;;;16522953;28;20316;-50
2022/11/11 06:28:31;;;;;;;9.60;8.60;;;;;7.20;100568.00;;;;16529919;28;20205;-49
2022/11/11 06:36:54;;;;;;;10.43;9.33;;;;;7.10;100587.00;;;;16494397;28;20709;-49
2022/11/11 06:45:15;;;;;;;11.13;10.13;;;;;7.10;100597.00;;;;16510414;28;20259;-48
2022/11/11 06:53:37;;;;;;;13.60;9.03;;;;;7.10;100597.00;;;;16482260;28;20230;-49
2022/11/11 07:01:58;;;;;;;10.57;8.60;;;;;7.20;100599.00;;;;16481994;28;20296;-50
2022/11/11 07:10:21;;;;;;;8.50;7.13;;;;;7.00;100605.00;;;;16475651;28;20730;-49
2022/11/11 07:18:42;;;;;;;8.20;7.50;;;;;7.20;100607.00;;;;16478630;28;20227;-50
2022/11/11 07:27:04;;;;;;;8.70;7.90;;;;;7.40;100605.00;;;;16498293;28;20698;-49
2022/11/11 07:35:25;;;;;;;7.07;6.47;;;;;7.40;100606.00;;;;16525903;28;20228;-50
2022/11/11 07:43:48;;;;;;;7.97;7.27;;;;;7.50;100612.00;;;;16526169;28;20223;-50
2022/11/11 07:52:09;;;;;;;9.37;8.57;;;;;7.70;100618.00;;;;16518421;28;20223;-49
2022/11/11 08:00:31;;;;;;;10.97;9.93;;;;;7.70;100600.00;;;;16503031;28;20252;-50
2022/11/11 08:08:53;;;;;;;11.77;10.67;;;;;7.70;100597.00;;;;16522419;28;20584;-48
2022/11/11 08:17:15;;;;;;;9.23;8.20;;;;;8.10;100588.00;;;;16514602;28;20230;-49
2022/11/11 08:25:36;;;;;;;10.20;8.83;;;;;8.40;100577.00;;;;16513806;28;20231;-49
2022/11/11 08:33:59;;;;;;;9.90;8.93;;;;;8.60;100575.00;;;;16496614;28;20235;-49
2022/11/11 08:42:20;;;;;;;10.73;9.77;;;;;8.50;100565.00;;;;16524087;28;20232;-49
2022/11/11 08:50:42;;;;;;;9.50;8.63;;;;;9.10;100564.00;;;;16508959;28;20229;-49
2022/11/11 08:59:04;;;;;;;14.60;9.60;;;;;8.90;100577.00;;;;16508540;28;20228;-48
2022/11/11 09:07:27;;;;;;;9.00;8.30;;;;;9.20;100570.00;;;;16505619;28;20210;-49
2022/11/11 09:15:48;;;;;;;9.13;8.30;;;;;9.80;100573.00;;;;16523258;28;20252;-49
2022/11/11 09:24:10;;;;;;;9.20;7.50;;;;;10.50;100553.00;;;;16523851;28;20707;-48
2022/11/11 09:32:32;;;;;;;8.67;7.87;;;;;10.80;100541.00;;;;16536101;28;20227;-49
2022/11/11 09:41:03;;;;;;;11.93;9.37;;;;;10.80;100543.00;;;;16490030;28;20219;-48
2022/11/11 09:49:52;;;;;;;9.10;8.20;;;;;10.90;100523.00;;;;16495801;28;20324;-50
2022/11/11 09:58:19;;;;;;;7.93;7.23;;;;;11.80;100518.00;;;;16493347;28;20237;-49
2022/11/11 10:06:40;;;;;;;10.13;9.13;;;;;11.90;100521.00;;;;16495718;28;20220;-50
2022/11/11 10:15:05;;;;;;;9.50;8.57;;;;;12.50;100510.00;;;;16480983;28;20924;-50
2022/11/11 10:23:29;;;;;;;10.70;8.13;;;;;12.40;100503.00;;;;16505908;28;20701;-50
2022/11/11 10:31:57;;;;;;;7.53;6.53;;;;;13.00;100511.00;;;;16518569;28;20301;-50
2022/11/11 10:40:22;;;;;;;8.87;7.20;;;;;14.10;100496.00;;;;16518103;28;20231;-50
2022/11/11 10:48:51;;;;;;;8.93;7.50;;;;;14.90;100489.00;;;;16515892;28;20200;-50
2022/11/11 10:57:17;;;;;;;8.90;8.10;;;;;14.90;100481.00;;;;16524081;28;20863;-49
2022/11/11 11:05:45;;;;;;;9.07;8.00;;;;;15.20;100472.00;;;;16515688;28;20691;-49
2022/11/11 11:14:10;;;;;;;10.00;8.07;;;;;15.60;100464.00;;;;16525162;28;20700;-50
2022/11/11 11:22:46;;;;;;;9.43;7.67;;;;;15.80;100447.00;;;;16503865;28;20216;-49
2022/11/11 11:31:09;;;;;;;10.03;7.80;;;;;15.10;100452.00;;;;16507011;28;20236;-50
2022/11/11 11:39:36;;;;;;;8.80;7.87;;;;;15.60;100447.00;;;;16521540;28;20731;-49
2022/11/11 11:48:18;;;;;;;8.80;7.80;;;;;16.20;100442.00;;;;16510644;28;20227;-50
2022/11/11 11:56:42;;;;;;;7.90;7.20;;;;;16.30;100432.00;;;;16497368;28;20268;-50
2022/11/11 12:05:11;;;;;;;8.70;7.50;;;;;17.00;100431.00;;;;16494911;28;20254;-50
2022/11/11 12:13:38;;;;;;;8.80;7.20;;;;;17.40;100427.00;;;;16499634;28;20211;-50
2022/11/11 12:22:05;;;;;;;7.33;6.70;;;;;18.10;100419.00;;;;16499113;28;20235;-49
2022/11/11 12:30:28;;;;;;;9.57;6.60;;;;;18.60;100416.00;;;;16506383;28;20979;-50
2022/11/11 12:38:58;;;;;;;7.10;6.50;;;;;18.20;100417.00;;;;16504924;28;20228;-51
2022/11/11 12:47:32;;;;;;;6.83;5.50;;;;;19.10;100408.00;;;;16507841;28;20192;-49
2022/11/11 12:56:01;;;;;;;6.57;5.87;;;;;19.40;100415.00;;;;16479610;28;20219;-50
2022/11/11 13:04:30;;;;;;;8.50;6.13;;;;;19.10;100400.00;;;;16483206;28;20227;-50
2022/11/11 13:12:57;;;;;;;7.57;5.83;;;;;19.10;100389.00;;;;16486991;28;20262;-49
2022/11/11 13:21:23;;;;;;;7.00;5.60;;;;;19.90;100381.00;;;;16482938;28;20228;-50
2022/11/11 13:30:03;;;;;;;6.33;5.63;;;;;20.70;100383.00;;;;16500572;28;20261;-50
2022/11/11 13:38:32;;;;;;;5.40;4.87;;;;;20.00;100396.00;;;;16485962;28;20231;-50
2022/11/11 13:46:55;;;;;;;6.53;4.93;;;;;20.30;100391.00;;;;16489543;28;20228;-50
2022/11/11 13:55:27;;;;;;;4.50;4.00;;;;;20.20;100379.00;;;;16491391;28;20256;-49
2022/11/11 14:04:03;;;;;;;7.33;5.20;;;;;20.40;100375.00;;;;16499794;28;20232;-50
2022/11/11 14:12:37;;;;;;;7.33;5.63;;;;;19.00;100372.00;;;;16509048;28;20266;-49
2022/11/11 14:20:58;;;;;;;8.87;5.70;;;;;18.40;100393.00;;;;16491083;28;20264;-50
2022/11/11 14:29:21;;;;;;;6.77;5.40;;;;;18.90;100409.00;;;;16507058;28;20224;-50
2022/11/11 14:38:06;;;;;;;5.00;4.60;;;;;19.00;100407.00;;;;16512179;28;20749;-50
2022/11/11 14:46:28;;;;;;;13.50;12.10;;;;;18.00;100417.00;;;;16499831;28;20277;-50
2022/11/11 14:54:59;;;;;;;109.83;98.70;;;;;19.90;100405.00;;;;16497804;28;20243;-46
2022/11/11 15:03:26;;;;;;;15.03;13.57;;;;;19.00;100412.00;;;;16478816;28;20248;-49
2022/11/11 15:11:54;;;;;;;4.83;4.27;;;;;17.30;100416.00;;;;16502309;28;20315;-50
2022/11/11 15:20:27;;;;;;;9.13;8.30;;;;;16.00;100429.00;;;;16502097;28;20227;-49
2022/11/11 15:29:12;;;;;;;4.50;4.10;;;;;14.40;100446.00;;;;16489039;28;20827;-50
2022/11/11 15:37:35;;;;;;;6.33;5.73;;;;;14.10;100443.00;;;;16497378;28;20996;-50
2022/11/11 15:45:58;;;;;;;12.30;11.17;;;;;13.70;100450.00;;;;16475489;28;20235;-50
2022/11/11 15:54:22;;;;;;;7.80;5.97;;;;;13.20;100445.00;;;;16506574;28;20220;-49
2022/11/11 16:02:44;;;;;;;7.50;6.80;;;;;12.90;100459.00;;;;16498077;28;20245;-50
2022/11/11 16:11:06;;;;;;;9.27;6.47;;;;;12.60;100455.00;;;;16485036;28;20530;-50
2022/11/11 16:19:32;;;;;;;13.87;12.47;;;;;12.30;100454.00;;;;16468089;28;20874;-50
2022/11/11 16:27:54;;;;;;;7.43;6.17;;;;;12.10;100447.00;;;;16493179;28;20200;-51
2022/11/11 16:36:15;;;;;;;9.40;8.00;;;;;11.60;100440.00;;;;16500835;28;20227;-50
2022/11/11 16:44:41;;;;;;;9.53;8.53;;;;;11.40;100466.00;;;;16518912;28;20235;-50
2022/11/11 16:53:03;;;;;;;14.03;9.57;;;;;11.80;100454.00;;;;16517403;28;20220;-50
2022/11/11 17:01:26;;;;;;;17.53;10.33;;;;;11.30;100465.00;;;;16533863;28;20227;-50
2022/11/11 17:09:47;;;;;;;12.43;8.83;;;;;11.00;100462.00;;;;16535086;28;20221;-49
2022/11/11 17:18:12;;;;;;;12.33;8.87;;;;;11.00;100472.00;;;;16526662;28;20641;-50
2022/11/11 17:26:34;;;;;;;13.17;11.20;;;;;10.80;100470.00;;;;16510233;28;20231;-49
2022/11/11 17:34:56;;;;;;;15.57;13.97;;;;;10.90;100473.00;;;;16516485;28;20236;-50
2022/11/11 17:43:17;;;;;;;22.53;14.83;;;;;11.10;100480.00;;;;16496149;28;20235;-49
2022/11/11 17:51:40;;;;;;;17.00;14.83;;;;;10.90;100479.00;;;;16495492;28;20308;-49
2022/11/11 18:00:02;;;;;;;17.30;13.00;;;;;11.10;100488.00;;;;16522656;28;20227;-48
2022/11/11 18:08:24;;;;;;;18.43;15.27;;;;;10.40;100492.00;;;;16523179;28;20209;-48
2022/11/11 18:16:46;;;;;;;13.07;10.60;;;;;10.50;100476.00;;;;16495470;28;20692;-50
2022/11/11 18:25:09;;;;;;;13.63;11.43;;;;;10.20;100485.00;;;;16487275;28;20220;-49
2022/11/11 18:33:31;;;;;;;13.40;12.10;;;;;10.10;100504.00;;;;16489018;28;20219;-48
2022/11/11 18:41:54;;;;;;;13.20;11.90;;;;;10.20;100487.00;;;;16496614;28;20307;-50
2022/11/11 18:50:15;;;;;;;15.03;13.43;;;;;10.00;100489.00;;;;16492801;28;20314;-50
2022/11/11 18:58:38;;;;;;;24.60;17.93;;;;;10.00;100498.00;;;;16505057;28;21051;-50
2022/11/11 19:06:59;;;;;;;15.83;14.27;;;;;9.90;100491.00;;;;16506742;28;20776;-50
2022/11/11 19:15:22;;;;;;;31.37;23.83;;;;;9.90;100493.00;;;;16508256;28;20307;-49
2022/11/11 19:23:43;;;;;;;49.33;32.57;;;;;9.90;100497.00;;;;16514222;28;20224;-49
2022/11/11 19:32:06;;;;;;;24.80;22.20;;;;;9.70;100501.00;;;;16498513;28;20228;-49
2022/11/11 19:40:27;;;;;;;20.23;18.07;;;;;10.10;100496.00;;;;16503372;28;20260;-48
2022/11/11 19:48:52;;;;;;;18.10;16.30;;;;;9.60;100507.00;;;;16520887;28;20239;-48
2022/11/11 19:57:13;;;;;;;21.10;18.23;;;;;9.60;100509.00;;;;16520044;28;20211;-49
2022/11/11 20:05:37;;;;;;;16.87;15.10;;;;;9.40;100524.00;;;;16518860;28;20230;-49
2022/11/11 20:13:59;;;;;;;18.73;16.63;;;;;10.00;100529.00;;;;16517113;28;20243;-49
2022/11/11 20:22:21;;;;;;;23.60;19.40;;;;;10.20;100528.00;;;;16515820;28;20232;-50
2022/11/11 20:30:43;;;;;;;18.90;14.80;;;;;9.70;100543.00;;;;16505423;28;20219;-50
2022/11/11 20:39:05;;;;;;;26.67;23.03;;;;;9.80;100535.00;;;;16513314;28;20633;-49
2022/11/11 20:47:26;;;;;;;20.30;17.77;;;;;10.10;100531.00;;;;16527178;28;20204;-50
2022/11/11 20:55:50;;;;;;;19.23;16.70;;;;;9.90;100532.00;;;;16515400;28;20662;-49
2022/11/11 21:04:11;;;;;;;24.23;21.60;;;;;9.90;100542.00;;;;16510027;28;20660;-50
2022/11/11 21:12:33;;;;;;;26.70;20.83;;;;;10.40;100536.00;;;;16513143;28;20220;-49
2022/11/11 21:20:54;;;;;;;20.90;17.97;;;;;9.90;100532.00;;;;16503432;28;20232;-48
2022/11/11 21:29:17;;;;;;;19.10;17.07;;;;;9.00;100550.00;;;;16495357;28;21034;-50
2022/11/11 21:37:38;;;;;;;20.03;17.73;;;;;8.90;100540.00;;;;16512119;28;20921;-49
2022/11/11 21:46:05;;;;;;;21.17;16.20;;;;;9.00;100543.00;;;;16514567;28;20727;-50
2022/11/11 21:54:26;;;;;;;18.80;16.97;;;;;9.10;100534.00;;;;16513839;28;20216;-50
2022/11/11 22:02:48;;;;;;;20.43;16.23;;;;;8.80;100534.00;;;;16513383;28;20730;-49
2022/11/11 22:11:10;;;;;;;22.60;19.60;;;;;8.90;100516.00;;;;16520736;28;20626;-49
2022/11/11 22:19:33;;;;;;;19.20;17.20;;;;;8.70;100511.00;;;;16525607;28;20231;-49
2022/11/11 22:27:54;;;;;;;17.67;15.60;;;;;9.40;100528.00;;;;16542398;28;20235;-49
2022/11/11 22:36:18;;;;;;;17.20;15.57;;;;;8.60;100544.00;;;;16529028;28;20232;-49
2022/11/11 22:44:39;;;;;;;19.30;17.23;;;;;8.40;100546.00;;;;16526327;28;20231;-50
2022/11/11 22:53:01;;;;;;;18.40;16.50;;;;;8.70;100541.00;;;;16526768;28;20568;-50
2022/11/11 23:01:24;;;;;;;17.30;15.57;;;;;8.90;100537.00;;;;16539498;28;20224;-50
2022/11/11 23:09:46;;;;;;;16.50;14.90;;;;;8.60;100532.00;;;;16526961;28;20846;-50
2022/11/11 23:18:07;;;;;;;19.97;15.97;;;;;8.60;100522.00;;;;16535061;28;20211;-49
2022/11/11 23:26:31;;;;;;;17.87;15.03;;;;;9.00;100523.00;;;;16523728;28;20235;-49
2022/11/11 23:34:52;;;;;;;16.97;15.27;;;;;9.40;100515.00;;;;16535126;28;20686;-48
2022/11/11 23:43:14;;;;;;;18.57;16.00;;;;;9.00;100525.00;;;;16522247;28;20220;-49
2022/11/11 23:51:36;;;;;;;14.97;13.57;;;;;9.20;100511.00;;;;16515901;28;20226;-48
2022/11/11 23:59:58;;;;;;;19.00;15.60;;;;;9.50;100531.00;;;;16535664;28;20259;-48
